createdAt,value
2022-08-22T00:01:46.956Z,17.30
2022-08-22T00:02:52.898Z,22.20
2022-08-22T00:03:00.779Z,23.30
2022-08-22T00:03:15.495Z,18.10
2022-08-22T00:04:25.417Z,17.30
2022-08-22T00:07:02.338Z,17.40
2022-08-22T00:09:36.257Z,17.40
2022-08-22T00:12:14.208Z,17.50
2022-08-22T00:14:47.437Z,17.50
2022-08-22T00:17:35.186Z,17.50
2022-08-22T00:20:13.129Z,17.50
2022-08-22T00:22:49.797Z,17.60
2022-08-22T00:25:35.007Z,17.70
2022-08-22T00:28:08.164Z,17.70
2022-08-22T00:30:45.489Z,17.80
2022-08-22T00:33:22.906Z,17.80
2022-08-22T00:36:08.444Z,17.60
2022-08-22T00:38:42.164Z,17.50
2022-08-22T00:41:24.425Z,17.40
2022-08-22T00:44:23.929Z,17.30
2022-08-22T00:47:17.106Z,17.20
2022-08-22T00:50:03.814Z,17.00
2022-08-22T00:52:49.534Z,16.90
2022-08-22T00:55:34.826Z,16.90
2022-08-22T00:58:25.669Z,17.00
2022-08-22T01:00:59.238Z,16.90
2022-08-22T01:04:06.977Z,16.90
2022-08-22T01:06:48.861Z,16.80
2022-08-22T01:09:31.683Z,16.70
2022-08-22T01:12:15.391Z,16.80
2022-08-22T01:14:48.326Z,16.70
2022-08-22T01:17:40.114Z,16.70
2022-08-22T01:20:37.050Z,16.80
2022-08-22T01:23:42.707Z,16.80
2022-08-22T01:27:10.651Z,16.70
2022-08-22T01:30:33.449Z,16.60
2022-08-22T01:33:45.470Z,16.60
2022-08-22T01:36:32.524Z,16.60
2022-08-22T01:39:17.181Z,16.50
2022-08-22T01:42:21.029Z,16.50
2022-08-22T01:45:36.959Z,16.30
2022-08-22T01:48:11.514Z,16.40
2022-08-22T01:50:44.875Z,16.40
2022-08-22T01:53:20.428Z,16.40
2022-08-22T01:55:57.941Z,16.30
2022-08-22T01:58:30.022Z,16.30
2022-08-22T02:01:21.803Z,16.20
2022-08-22T02:04:03.262Z,16.20
2022-08-22T02:06:43.729Z,16.20
2022-08-22T02:09:27.404Z,16.10
2022-08-22T02:12:00.208Z,16.10
2022-08-22T02:14:41.368Z,16.00
2022-08-22T02:17:20.054Z,15.90
2022-08-22T02:19:56.227Z,15.90
2022-08-22T02:22:33.923Z,15.90
2022-08-22T02:25:09.780Z,15.90
2022-08-22T02:27:50.120Z,15.80
2022-08-22T02:30:21.808Z,15.90
2022-08-22T02:33:05.496Z,15.80
2022-08-22T02:35:38.687Z,15.80
2022-08-22T02:38:24.084Z,15.70
2022-08-22T02:41:05.455Z,15.70
2022-08-22T02:43:40.896Z,15.70
2022-08-22T02:46:19.871Z,15.60
2022-08-22T02:48:58.277Z,15.60
2022-08-22T02:51:37.183Z,15.50
2022-08-22T02:54:14.154Z,15.50
2022-08-22T02:56:50.702Z,15.60
2022-08-22T02:59:31.938Z,15.60
2022-08-22T03:02:27.700Z,15.60
2022-08-22T03:04:58.077Z,15.60
2022-08-22T03:07:39.020Z,15.70
2022-08-22T03:10:16.557Z,15.60
2022-08-22T03:12:58.289Z,15.60
2022-08-22T03:15:34.081Z,15.60
2022-08-22T03:18:07.951Z,15.60
2022-08-22T03:20:46.723Z,15.60
2022-08-22T03:23:24.000Z,15.60
2022-08-22T03:25:59.924Z,15.60
2022-08-22T03:28:36.793Z,15.40
2022-08-22T03:31:13.681Z,15.40
2022-08-22T03:33:42.162Z,15.30
2022-08-22T03:36:25.762Z,15.20
2022-08-22T03:39:17.291Z,15.20
2022-08-22T03:42:03.387Z,15.10
2022-08-22T03:45:11.595Z,15.10
2022-08-22T03:48:08.629Z,15.10
2022-08-22T03:50:56.600Z,15.20
2022-08-22T03:53:58.250Z,15.20
2022-08-22T03:57:02.526Z,15.10
2022-08-22T04:00:07.854Z,15.10
2022-08-22T04:03:08.272Z,15.10
2022-08-22T04:06:11.526Z,15.10
2022-08-22T04:09:07.686Z,15.00
2022-08-22T04:12:13.571Z,14.90
2022-08-22T04:15:00.800Z,14.80
2022-08-22T04:18:17.635Z,14.90
2022-08-22T04:21:16.577Z,14.90
2022-08-22T04:24:08.899Z,14.80
2022-08-22T04:26:45.352Z,15.00
2022-08-22T04:29:20.591Z,14.90
2022-08-22T04:31:55.448Z,14.80
2022-08-22T04:34:29.588Z,14.70
2022-08-22T04:37:03.387Z,14.90
2022-08-22T04:39:36.748Z,14.90
2022-08-22T04:42:31.225Z,14.90
2022-08-22T04:45:06.846Z,14.90
2022-08-22T04:47:40.336Z,14.90
2022-08-22T04:50:16.735Z,14.90
2022-08-22T04:53:03.968Z,14.90
2022-08-22T04:55:37.442Z,15.00
2022-08-22T04:58:19.642Z,15.10
2022-08-22T05:01:04.595Z,15.30
2022-08-22T05:03:43.075Z,15.40
2022-08-22T05:06:15.659Z,15.40
2022-08-22T05:08:45.779Z,15.60
2022-08-22T05:11:19.843Z,15.60
2022-08-22T05:13:52.201Z,15.70
2022-08-22T05:16:24.395Z,15.80
2022-08-22T05:18:57.368Z,15.90
2022-08-22T05:21:33.512Z,16.00
2022-08-22T05:24:05.580Z,16.00
2022-08-22T05:26:39.520Z,16.00
2022-08-22T05:29:10.216Z,16.00
2022-08-22T05:31:42.703Z,16.10
2022-08-22T05:34:17.725Z,16.10
2022-08-22T05:36:49.691Z,16.20
2022-08-22T05:39:22.729Z,16.30
2022-08-22T05:41:55.875Z,16.30
2022-08-22T05:44:26.937Z,16.40
2022-08-22T05:47:01.890Z,16.40
2022-08-22T05:49:38.193Z,16.40
2022-08-22T05:52:16.394Z,16.50
2022-08-22T05:54:53.567Z,16.60
2022-08-22T05:57:28.894Z,16.80
2022-08-22T06:00:03.953Z,16.90
2022-08-22T06:02:52.092Z,16.90
2022-08-22T06:05:25.757Z,17.10
2022-08-22T06:08:00.824Z,17.10
2022-08-22T06:10:35.210Z,17.30
2022-08-22T06:13:06.719Z,17.40
2022-08-22T06:15:47.803Z,17.40
2022-08-22T06:18:22.000Z,17.50
2022-08-22T06:20:55.043Z,17.60
2022-08-22T06:23:27.452Z,17.70
2022-08-22T06:25:59.193Z,17.70
2022-08-22T06:28:32.820Z,17.80
2022-08-22T06:31:03.483Z,17.90
2022-08-22T06:33:39.047Z,18.00
2022-08-22T06:36:32.443Z,18.20
2022-08-22T06:39:23.382Z,18.30
2022-08-22T06:41:54.701Z,18.40
2022-08-22T06:44:25.959Z,18.60
2022-08-22T06:46:58.474Z,18.70
2022-08-22T06:49:29.026Z,19.00
2022-08-22T06:52:03.046Z,19.60
2022-08-22T06:54:36.278Z,21.30
2022-08-22T06:57:06.640Z,23.00
2022-08-22T06:59:38.767Z,24.80
2022-08-22T07:02:17.458Z,25.90
2022-08-22T07:04:49.907Z,26.50
2022-08-22T07:07:24.856Z,26.80
2022-08-22T07:09:55.550Z,26.50
2022-08-22T07:12:28.776Z,26.60
2022-08-22T07:15:01.184Z,28.10
2022-08-22T07:17:31.154Z,28.20
2022-08-22T07:20:05.305Z,28.70
2022-08-22T07:22:37.438Z,29.00
2022-08-22T07:25:11.299Z,29.60
2022-08-22T07:27:52.420Z,29.90
2022-08-22T07:30:26.597Z,29.60
2022-08-22T07:33:25.985Z,29.50
2022-08-22T07:35:55.749Z,29.90
2022-08-22T07:38:33.239Z,29.50
2022-08-22T07:41:10.696Z,29.20
2022-08-22T07:43:43.710Z,29.60
2022-08-22T07:46:22.846Z,29.00
2022-08-22T07:49:08.531Z,29.50
2022-08-22T07:51:42.693Z,29.20
2022-08-22T07:54:14.884Z,30.00
2022-08-22T07:56:50.320Z,30.30
2022-08-22T07:59:21.401Z,31.20
2022-08-22T08:01:54.037Z,31.40
2022-08-22T08:04:26.218Z,32.30
2022-08-22T08:06:57.619Z,32.10
2022-08-22T08:09:31.062Z,31.70
2022-08-22T08:12:00.786Z,31.60
2022-08-22T08:14:29.585Z,31.60
2022-08-22T08:17:03.298Z,32.20
2022-08-22T08:19:35.226Z,32.40
2022-08-22T08:22:04.778Z,32.10
2022-08-22T08:24:40.777Z,32.10
2022-08-22T08:27:33.639Z,32.10
2022-08-22T08:30:06.505Z,32.20
2022-08-22T08:32:38.373Z,32.30
2022-08-22T08:35:11.781Z,32.70
2022-08-22T08:37:45.334Z,32.00
2022-08-22T08:40:27.757Z,31.30
2022-08-22T08:43:29.893Z,31.50
2022-08-22T08:46:40.792Z,32.00
2022-08-22T08:49:29.926Z,31.90
2022-08-22T08:52:42.082Z,32.00
2022-08-22T08:55:29.553Z,32.40
2022-08-22T08:58:12.373Z,32.40
2022-08-22T09:00:52.270Z,32.10
2022-08-22T09:03:57.333Z,32.50
2022-08-22T09:06:56.823Z,33.10
2022-08-22T09:09:45.595Z,33.50
2022-08-22T09:12:54.368Z,33.60
2022-08-22T09:15:41.553Z,33.50
2022-08-22T09:18:49.585Z,33.40
2022-08-22T09:21:45.506Z,32.90
2022-08-22T09:24:53.361Z,33.30
2022-08-22T09:27:33.631Z,33.90
2022-08-22T09:30:08.673Z,34.00
2022-08-22T09:32:54.590Z,33.30
2022-08-22T09:35:32.127Z,33.80
2022-08-22T09:38:25.393Z,33.70
2022-08-22T09:41:01.087Z,33.30
2022-08-22T09:43:44.174Z,33.30
2022-08-22T09:46:21.317Z,32.80
2022-08-22T09:49:05.647Z,32.50
2022-08-22T09:51:44.549Z,32.40
2022-08-22T09:54:31.359Z,33.10
2022-08-22T09:57:17.429Z,33.60
2022-08-22T10:00:15.402Z,34.00
2022-08-22T10:02:52.232Z,34.50
2022-08-22T10:05:40.636Z,34.40
2022-08-22T10:08:40.634Z,34.20
2022-08-22T10:11:26.781Z,34.30
2022-08-22T10:14:02.279Z,34.50
2022-08-22T10:17:03.490Z,34.30
2022-08-22T10:19:38.110Z,34.40
2022-08-22T10:22:20.251Z,34.70
2022-08-22T10:24:59.885Z,34.60
2022-08-22T10:27:42.635Z,34.30
2022-08-22T10:30:16.350Z,34.30
2022-08-22T10:32:51.995Z,34.30
2022-08-22T10:35:25.736Z,35.20
2022-08-22T10:38:00.176Z,35.50
2022-08-22T10:40:36.043Z,35.30
2022-08-22T10:43:12.844Z,34.60
2022-08-22T10:45:45.182Z,34.80
2022-08-22T10:48:43.653Z,34.90
2022-08-22T10:51:24.884Z,33.20
2022-08-22T10:54:32.560Z,34.20
2022-08-22T10:57:15.204Z,34.00
2022-08-22T10:59:57.177Z,34.90
2022-08-22T11:02:55.166Z,35.10
2022-08-22T11:05:39.264Z,33.40
2022-08-22T11:08:31.487Z,33.20
2022-08-22T11:11:09.471Z,31.90
2022-08-22T11:13:44.169Z,30.50
2022-08-22T11:16:20.113Z,29.40
2022-08-22T11:19:15.253Z,28.60
2022-08-22T11:22:07.780Z,28.20
2022-08-22T11:25:14.049Z,28.30
2022-08-22T11:27:55.111Z,28.20
2022-08-22T11:30:36.268Z,28.00
2022-08-22T11:33:32.454Z,27.70
2022-08-22T11:36:26.308Z,27.60
2022-08-22T11:39:18.056Z,27.40
2022-08-22T11:41:56.100Z,27.40
2022-08-22T11:44:35.775Z,27.70
2022-08-22T11:47:28.856Z,28.30
2022-08-22T11:50:03.312Z,29.20
2022-08-22T11:53:04.507Z,29.20
2022-08-22T11:55:39.332Z,29.20
2022-08-22T11:58:22.944Z,28.50
2022-08-22T12:01:01.428Z,28.30
2022-08-22T12:03:55.672Z,28.60
2022-08-22T12:06:44.423Z,30.00
2022-08-22T12:09:36.346Z,31.90
2022-08-22T12:12:42.534Z,32.90
2022-08-22T12:15:17.456Z,33.60
2022-08-22T12:18:25.093Z,34.30
2022-08-22T12:21:15.816Z,34.60
2022-08-22T12:24:11.088Z,33.70
2022-08-22T12:26:59.315Z,34.30
2022-08-22T12:29:39.939Z,32.90
2022-08-22T12:32:43.894Z,31.10
2022-08-22T12:35:29.982Z,30.00
2022-08-22T12:38:26.722Z,30.20
2022-08-22T12:41:12.212Z,31.50
2022-08-22T12:43:53.188Z,33.20
2022-08-22T12:46:37.844Z,34.00
2022-08-22T12:49:49.804Z,34.30
2022-08-22T12:52:31.233Z,33.90
2022-08-22T12:55:24.858Z,33.90
2022-08-22T12:58:03.275Z,33.50
2022-08-22T13:00:35.031Z,33.60
2022-08-22T13:03:10.741Z,34.10
2022-08-22T13:05:44.783Z,34.70
2022-08-22T13:08:30.061Z,34.60
2022-08-22T13:11:02.253Z,34.00
2022-08-22T13:13:36.942Z,33.90
2022-08-22T13:16:08.241Z,34.40
2022-08-22T13:18:44.593Z,35.00
2022-08-22T13:21:16.510Z,35.40
2022-08-22T13:23:48.565Z,35.30
2022-08-22T13:26:33.700Z,35.40
2022-08-22T13:29:25.224Z,35.50
2022-08-22T13:32:01.998Z,36.20
2022-08-22T13:34:40.557Z,35.80
2022-08-22T13:37:16.652Z,35.80
2022-08-22T13:39:49.101Z,34.70
2022-08-22T13:42:28.960Z,34.80
2022-08-22T13:45:05.077Z,33.60
2022-08-22T13:47:39.231Z,34.00
2022-08-22T13:50:14.660Z,33.30
2022-08-22T13:52:52.303Z,32.20
2022-08-22T13:55:29.529Z,31.70
2022-08-22T13:58:06.821Z,31.40
2022-08-22T14:01:08.296Z,30.90
2022-08-22T14:03:42.986Z,32.00
2022-08-22T14:06:35.483Z,32.90
2022-08-22T14:09:31.786Z,33.90
2022-08-22T14:12:12.289Z,33.00
2022-08-22T14:14:45.818Z,32.70
2022-08-22T14:17:20.787Z,31.80
2022-08-22T14:19:59.702Z,30.80
2022-08-22T14:22:35.483Z,30.30
2022-08-22T14:25:08.593Z,30.00
2022-08-22T14:27:39.920Z,29.70
2022-08-22T14:30:15.997Z,29.40
2022-08-22T14:32:50.451Z,29.20
2022-08-22T14:35:34.592Z,29.20
2022-08-22T14:38:27.341Z,29.10
2022-08-22T14:41:03.251Z,28.60
2022-08-22T14:43:49.293Z,28.50
2022-08-22T14:46:26.684Z,28.50
2022-08-22T14:49:30.332Z,28.20
2022-08-22T14:52:07.373Z,28.10
2022-08-22T14:54:39.269Z,28.10
2022-08-22T14:57:20.515Z,28.00
2022-08-22T14:59:52.632Z,28.30
2022-08-22T15:02:26.798Z,29.50
2022-08-22T15:04:57.725Z,30.70
2022-08-22T15:07:28.446Z,31.30
2022-08-22T15:10:03.182Z,31.70
2022-08-22T15:12:34.576Z,32.40
2022-08-22T15:15:06.261Z,32.20
2022-08-22T15:17:44.060Z,32.10
2022-08-22T15:20:27.879Z,32.30
2022-08-22T15:23:01.426Z,32.50
2022-08-22T15:25:34.388Z,32.20
2022-08-22T15:28:06.738Z,32.00
2022-08-22T15:30:45.121Z,32.30
2022-08-22T15:33:24.354Z,32.20
2022-08-22T15:35:55.359Z,32.80
2022-08-22T15:38:32.425Z,31.60
2022-08-22T15:41:31.450Z,31.10
2022-08-22T15:44:09.287Z,31.10
2022-08-22T15:47:24.206Z,31.60
2022-08-22T15:49:59.311Z,31.90
2022-08-22T15:52:30.630Z,31.40
2022-08-22T15:55:21.636Z,31.50
2022-08-22T15:58:02.525Z,30.90
2022-08-22T16:00:43.756Z,30.10
2022-08-22T16:03:24.465Z,29.60
2022-08-22T16:05:56.033Z,29.30
2022-08-22T16:08:32.781Z,29.00
2022-08-22T16:11:29.676Z,28.80
2022-08-22T16:14:24.788Z,28.60
2022-08-22T16:17:01.632Z,28.80
2022-08-22T16:19:32.908Z,28.70
2022-08-22T16:22:18.992Z,28.70
2022-08-22T16:25:10.549Z,28.50
2022-08-22T16:27:52.897Z,28.20
2022-08-22T16:30:34.907Z,28.20
2022-08-22T16:33:04.494Z,28.10
2022-08-22T16:36:24.913Z,27.90
2022-08-22T16:38:57.099Z,27.80
2022-08-22T16:41:34.787Z,27.80
2022-08-22T16:44:31.357Z,28.30
2022-08-22T16:47:12.822Z,28.50
2022-08-22T16:49:57.045Z,28.50
2022-08-22T16:53:01.635Z,28.60
2022-08-22T16:55:56.316Z,28.80
2022-08-22T16:59:19.658Z,28.60
2022-08-22T17:02:09.703Z,28.10
2022-08-22T17:04:50.864Z,27.70
2022-08-22T17:07:30.988Z,27.40
2022-08-22T17:10:36.166Z,27.20
2022-08-22T17:13:22.841Z,27.00
2022-08-22T17:16:21.502Z,26.80
2022-08-22T17:19:09.190Z,26.70
2022-08-22T17:21:51.719Z,26.70
2022-08-22T17:24:34.014Z,26.60
2022-08-22T17:27:08.758Z,26.50
2022-08-22T17:29:53.761Z,26.40
2022-08-22T17:32:30.139Z,26.40
2022-08-22T17:35:07.597Z,26.30
2022-08-22T17:37:47.356Z,26.20
2022-08-22T17:40:28.684Z,26.10
2022-08-22T17:43:16.375Z,26.00
2022-08-22T17:46:00.409Z,25.90
2022-08-22T17:48:33.907Z,25.90
2022-08-22T17:51:11.764Z,25.80
2022-08-22T17:53:49.127Z,25.70
2022-08-22T17:56:23.659Z,25.60
2022-08-22T17:59:00.623Z,25.50
2022-08-22T18:01:45.250Z,25.40
2022-08-22T18:04:28.266Z,25.30
2022-08-22T18:07:05.244Z,25.20
2022-08-22T18:09:41.247Z,25.10
2022-08-22T18:12:17.434Z,24.90
2022-08-22T18:14:51.538Z,24.80
2022-08-22T18:17:26.202Z,24.70
2022-08-22T18:20:03.476Z,24.70
2022-08-22T18:22:37.440Z,24.60
2022-08-22T18:25:15.151Z,24.50
2022-08-22T18:27:51.988Z,24.40
2022-08-22T18:30:22.683Z,24.30
2022-08-22T18:32:57.625Z,24.20
2022-08-22T18:35:34.637Z,24.10
2022-08-22T18:38:19.135Z,24.00
2022-08-22T18:40:55.119Z,23.90
2022-08-22T18:43:36.022Z,23.90
2022-08-22T18:46:28.646Z,23.70
2022-08-22T18:49:15.227Z,23.50
2022-08-22T18:51:44.497Z,23.30
2022-08-22T18:54:37.073Z,23.20
2022-08-22T18:57:30.753Z,23.20
2022-08-22T19:00:07.612Z,23.20
2022-08-22T19:02:55.991Z,23.10
2022-08-22T19:05:40.277Z,23.00
2022-08-22T19:08:33.394Z,23.10
2022-08-22T19:11:16.951Z,23.10
2022-08-22T19:14:03.680Z,23.10
2022-08-22T19:17:03.261Z,22.80
2022-08-22T19:20:03.110Z,22.70
2022-08-22T19:22:35.716Z,22.70
2022-08-22T19:25:16.898Z,22.50
2022-08-22T19:27:46.778Z,22.70
2022-08-22T19:30:39.427Z,22.50
2022-08-22T19:33:09.854Z,22.20
2022-08-22T19:35:47.278Z,22.30
2022-08-22T19:38:52.432Z,22.10
2022-08-22T19:41:40.217Z,22.10
2022-08-22T19:44:12.499Z,22.00
2022-08-22T19:46:43.084Z,21.90
2022-08-22T19:49:29.012Z,22.00
2022-08-22T19:52:14.590Z,22.00
2022-08-22T19:54:54.376Z,22.10
2022-08-22T19:57:30.297Z,21.80
2022-08-22T20:00:04.053Z,21.70
2022-08-22T20:02:40.201Z,21.60
2022-08-22T20:05:24.564Z,21.50
2022-08-22T20:08:14.588Z,21.30
2022-08-22T20:10:56.931Z,21.20
2022-08-22T20:13:27.915Z,21.20
2022-08-22T20:16:06.465Z,21.30
2022-08-22T20:19:13.832Z,21.30
2022-08-22T20:21:47.425Z,21.30
2022-08-22T20:24:31.347Z,21.00
2022-08-22T20:27:13.750Z,21.00
2022-08-22T20:29:49.283Z,21.00
2022-08-22T20:32:21.310Z,20.90
2022-08-22T20:34:55.479Z,20.90
2022-08-22T20:37:45.415Z,20.80
2022-08-22T20:40:53.272Z,20.80
2022-08-22T20:43:28.467Z,20.70
2022-08-22T20:46:08.020Z,20.70
2022-08-22T20:48:42.471Z,20.60
2022-08-22T20:51:16.059Z,20.60
2022-08-22T20:53:52.508Z,20.60
2022-08-22T20:56:36.875Z,20.70
2022-08-22T20:59:24.009Z,20.60
2022-08-22T21:01:57.991Z,20.60
2022-08-22T21:04:32.146Z,20.50
2022-08-22T21:07:03.164Z,20.40
2022-08-22T21:09:48.851Z,20.30
2022-08-22T21:12:16.856Z,20.10
2022-08-22T21:14:46.921Z,20.00
2022-08-22T21:17:20.150Z,20.10
2022-08-22T21:19:48.575Z,20.40
2022-08-22T21:22:20.721Z,20.40
2022-08-22T21:24:48.684Z,20.50
2022-08-22T21:27:24.454Z,20.40
2022-08-22T21:29:52.585Z,20.70
2022-08-22T21:32:28.750Z,20.60
2022-08-22T21:34:57.009Z,20.50
2022-08-22T21:37:34.365Z,20.50
2022-08-22T21:40:08.397Z,20.30
2022-08-22T21:42:45.778Z,20.10
2022-08-22T21:45:28.315Z,20.20
2022-08-22T21:47:56.539Z,20.20
2022-08-22T21:50:34.678Z,20.10
2022-08-22T21:53:10.143Z,19.90
2022-08-22T21:55:42.781Z,19.80
2022-08-22T21:58:36.870Z,19.70
2022-08-22T22:01:29.193Z,19.80
2022-08-22T22:03:58.336Z,19.70
2022-08-22T22:06:26.981Z,19.50
2022-08-22T22:08:56.762Z,19.30
2022-08-22T22:11:24.760Z,19.50
2022-08-22T22:13:52.981Z,19.50
2022-08-22T22:16:28.386Z,19.50
2022-08-22T22:18:57.084Z,19.80
2022-08-22T22:21:25.124Z,19.90
2022-08-22T22:23:53.656Z,19.70
2022-08-22T22:26:28.698Z,19.50
2022-08-22T22:28:58.656Z,19.60
2022-08-22T22:31:26.783Z,19.60
2022-08-22T22:33:54.884Z,19.60
2022-08-22T22:36:26.141Z,19.60
2022-08-22T22:38:55.098Z,19.70
2022-08-22T22:41:25.767Z,19.60
2022-08-22T22:43:56.347Z,19.50
2022-08-22T22:46:26.765Z,19.60
2022-08-22T22:48:54.923Z,19.70
2022-08-22T22:51:23.225Z,19.50
2022-08-22T22:53:51.787Z,19.50
2022-08-22T22:56:22.227Z,19.40
2022-08-22T22:58:59.095Z,19.30
2022-08-22T23:01:33.258Z,19.60
2022-08-22T23:04:05.509Z,19.50
2022-08-22T23:06:34.569Z,19.30
2022-08-22T23:09:02.684Z,19.10
2022-08-22T23:11:31.822Z,19.00
2022-08-22T23:13:59.797Z,18.80
2022-08-22T23:16:32.943Z,18.70
2022-08-22T23:19:10.228Z,18.60
2022-08-22T23:21:38.289Z,18.60
2022-08-22T23:24:06.949Z,18.60
2022-08-22T23:26:36.049Z,18.80
2022-08-22T23:29:05.408Z,18.80
2022-08-22T23:31:35.303Z,18.80
2022-08-22T23:34:05.861Z,18.80
2022-08-22T23:36:35.711Z,18.80
2022-08-22T23:39:04.634Z,18.80
2022-08-22T23:41:32.835Z,18.70
2022-08-22T23:44:00.786Z,18.70
2022-08-22T23:46:29.014Z,18.70
2022-08-22T23:48:59.300Z,18.50
2022-08-22T23:51:28.333Z,18.40
2022-08-22T23:53:59.238Z,18.40
2022-08-22T23:56:29.406Z,18.30
2022-08-22T23:58:58.426Z,18.20
